Time;durP1;ratioP1;P1;durP2;ratioP2;P2;SDS_P1;SDS_P2;PMS_P1;PMS_P2;Temp;Humidity;BMP_temperature;BMP_pressure;BME280_temperature;BME280_humidity;BME280_pressure;Samples;Min_cycle;Max_cycle;Signal;HPM_P1;HPM_P2
2024/02/19 00:00:09;;;;;;;147.60;90.35;;;;;;;;;;6267704;28;24411;-80
2024/02/19 00:03:10;;;;;;;113.65;70.65;;;;;;;;;;6263298;28;24530;-82
2024/02/19 00:06:12;;;;;;;93.43;60.33;;;;;;;;;;6265867;28;24426;-80
2024/02/19 00:09:13;;;;;;;91.25;58.97;;;;;;;;;;6267482;28;24435;-80
2024/02/19 00:12:15;;;;;;;86.53;56.13;;;;;;;;;;6266872;28;24412;-80
2024/02/19 00:15:18;;;;;;;92.57;58.15;;;;;;;;;;6265207;28;24421;-81
2024/02/19 00:18:20;;;;;;;93.00;57.97;;;;;;;;;;6263979;28;24422;-80
2024/02/19 00:21:21;;;;;;;95.25;58.30;;;;;;;;;;6268239;28;24454;-82
2024/02/19 00:24:23;;;;;;;90.40;59.03;;;;;;;;;;6264730;28;24419;-80
2024/02/19 00:27:24;;;;;;;95.40;61.38;;;;;;;;;;6263375;28;24423;-79
2024/02/19 00:30:27;;;;;;;98.63;63.40;;;;;;;;;;6266628;28;24427;-78
2024/02/19 00:33:29;;;;;;;99.15;62.05;;;;;;;;;;6266802;28;24419;-80
2024/02/19 00:36:30;;;;;;;98.78;63.20;;;;;;;;;;6266846;28;24436;-78
2024/02/19 00:39:32;;;;;;;96.68;61.88;;;;;;;;;;6265499;28;24420;-81
2024/02/19 00:42:33;;;;;;;100.20;61.80;;;;;;;;;;6269101;28;24423;-79
2024/02/19 00:45:36;;;;;;;92.57;60.53;;;;;;;;;;6266123;28;24457;-79
2024/02/19 00:48:37;;;;;;;91.82;59.10;;;;;;;;;;6260937;28;24422;-79
2024/02/19 00:51:39;;;;;;;91.80;58.27;;;;;;;;;;6264468;28;24491;-81
2024/02/19 00:54:40;;;;;;;94.93;59.35;;;;;;;;;;6266388;28;24412;-83
2024/02/19 00:57:42;;;;;;;93.75;59.67;;;;;;;;;;6265583;28;24434;-79
2024/02/19 01:00:45;;;;;;;99.15;62.05;;;;;;;;;;6263845;28;24635;-79
2024/02/19 01:03:46;;;;;;;95.93;60.75;;;;;;;;;;6265762;28;24432;-81
2024/02/19 01:06:47;;;;;;;98.07;61.95;;;;;;;;;;6261850;28;24424;-80
2024/02/19 01:09:49;;;;;;;97.93;62.17;;;;;;;;;;6264111;28;24424;-79
2024/02/19 01:12:50;;;;;;;92.82;59.10;;;;;;;;;;6266553;28;24423;-80
2024/02/19 01:15:53;;;;;;;91.82;59.85;;;;;;;;;;6266581;28;24431;-79
2024/02/19 01:18:55;;;;;;;97.80;62.22;;;;;;;;;;6265684;28;24420;-81
2024/02/19 01:21:56;;;;;;;97.93;61.38;;;;;;;;;;6266911;28;24434;-78
2024/02/19 01:24:58;;;;;;;99.10;64.05;;;;;;;;;;6264125;28;24412;-81
2024/02/19 01:27:59;;;;;;;99.07;63.03;;;;;;;;;;6265790;28;24454;-81
2024/02/19 01:31:02;;;;;;;95.68;60.92;;;;;;;;;;6265488;28;24502;-82
2024/02/19 01:34:04;;;;;;;95.90;60.22;;;;;;;;;;6264172;28;24408;-82
2024/02/19 01:37:05;;;;;;;92.10;59.83;;;;;;;;;;6262796;28;24526;-82
2024/02/19 01:40:09;;;;;;;95.72;60.60;;;;;;;;;;6263122;28;24454;-82
2024/02/19 01:43:11;;;;;;;93.17;60.20;;;;;;;;;;6260761;28;24444;-81
2024/02/19 01:46:15;;;;;;;92.33;59.30;;;;;;;;;;6266889;28;24415;-82
2024/02/19 01:49:17;;;;;;;93.23;59.60;;;;;;;;;;6266649;28;24428;-82
2024/02/19 01:52:18;;;;;;;94.17;61.27;;;;;;;;;;6264824;28;24424;-83
2024/02/19 01:55:20;;;;;;;95.33;61.00;;;;;;;;;;6264796;28;24428;-82
2024/02/19 01:58:22;;;;;;;94.00;60.90;;;;;;;;;;6262294;28;24434;-82
2024/02/19 02:01:24;;;;;;;91.93;60.58;;;;;;;;;;6263622;28;24407;-80
2024/02/19 02:04:27;;;;;;;107.10;67.33;;;;;;;;;;6260210;28;24456;-82
2024/02/19 02:07:29;;;;;;;105.78;66.15;;;;;;;;;;6267344;28;24450;-81
2024/02/19 02:10:30;;;;;;;103.18;64.95;;;;;;;;;;6267026;28;24479;-82
2024/02/19 02:13:33;;;;;;;106.05;64.45;;;;;;;;;;6267362;28;24415;-83
2024/02/19 02:16:36;;;;;;;100.15;65.13;;;;;;;;;;6265094;28;24474;-82
2024/02/19 02:19:41;;;;;;;97.97;64.05;;;;;;;;;;6264282;28;24576;-81
2024/02/19 02:22:43;;;;;;;105.43;67.05;;;;;;;;;;6264498;28;24487;-82
2024/02/19 02:25:44;;;;;;;110.00;68.40;;;;;;;;;;6268004;28;24425;-83
2024/02/19 02:28:47;;;;;;;105.38;67.28;;;;;;;;;;6270667;28;24802;-81
2024/02/19 02:31:48;;;;;;;106.47;68.72;;;;;;;;;;6267773;28;24634;-82
2024/02/19 02:34:50;;;;;;;105.85;67.22;;;;;;;;;;6263047;28;24497;-81
2024/02/19 02:37:51;;;;;;;110.23;68.93;;;;;;;;;;6267011;28;24821;-81
2024/02/19 02:40:55;;;;;;;107.20;68.97;;;;;;;;;;6268362;28;24454;-81
2024/02/19 02:43:58;;;;;;;108.63;68.38;;;;;;;;;;6268246;28;24416;-81
2024/02/19 02:46:59;;;;;;;108.30;68.95;;;;;;;;;;6266111;28;24427;-82
2024/02/19 02:50:00;;;;;;;108.82;69.68;;;;;;;;;;6266024;28;24438;-80
2024/02/19 02:53:02;;;;;;;108.50;67.23;;;;;;;;;;6267520;28;24783;-81
2024/02/19 02:56:03;;;;;;;108.22;68.75;;;;;;;;;;6266114;28;24499;-81
2024/02/19 02:59:06;;;;;;;108.60;69.35;;;;;;;;;;6270758;28;24477;-82
2024/02/19 03:02:07;;;;;;;112.40;69.50;;;;;;;;;;6267995;28;24419;-81
2024/02/19 03:05:09;;;;;;;111.43;68.93;;;;;;;;;;6267800;28;24461;-82
2024/02/19 03:08:10;;;;;;;110.15;69.35;;;;;;;;;;6267656;28;24424;-81
2024/02/19 03:11:12;;;;;;;111.93;70.80;;;;;;;;;;6268271;28;24416;-81
2024/02/19 03:14:16;;;;;;;113.15;70.13;;;;;;;;;;6270507;28;24547;-81
2024/02/19 03:17:17;;;;;;;111.03;70.78;;;;;;;;;;6265951;28;24470;-82
2024/02/19 03:20:23;;;;;;;114.73;71.13;;;;;;;;;;6269791;28;24432;-81
2024/02/19 03:23:24;;;;;;;111.03;70.18;;;;;;;;;;6268587;28;24763;-82
2024/02/19 03:26:27;;;;;;;114.13;72.60;;;;;;;;;;6270703;28;24426;-82
2024/02/19 03:29:30;;;;;;;111.68;71.15;;;;;;;;;;6268141;28;24427;-82
2024/02/19 03:32:32;;;;;;;114.57;71.13;;;;;;;;;;6267910;28;24572;-80
2024/02/19 03:35:33;;;;;;;117.07;71.60;;;;;;;;;;6268644;28;24430;-81
2024/02/19 03:38:34;;;;;;;115.22;73.00;;;;;;;;;;6267155;28;24424;-81
2024/02/19 03:41:36;;;;;;;117.45;74.03;;;;;;;;;;6266747;28;24659;-81
2024/02/19 03:44:39;;;;;;;112.10;72.27;;;;;;;;;;6265347;28;24434;-81
2024/02/19 03:47:41;;;;;;;117.65;73.88;;;;;;;;;;6265945;28;24416;-81
2024/02/19 03:50:42;;;;;;;117.15;73.78;;;;;;;;;;6268091;28;24427;-80
2024/02/19 03:53:44;;;;;;;116.50;73.53;;;;;;;;;;6265093;28;24423;-81
2024/02/19 03:56:45;;;;;;;116.45;73.40;;;;;;;;;;6263905;28;24428;-82
2024/02/19 03:59:48;;;;;;;116.78;73.72;;;;;;;;;;6265660;28;24438;-82
2024/02/19 04:02:50;;;;;;;114.18;72.50;;;;;;;;;;6267744;28;24451;-81
2024/02/19 04:05:51;;;;;;;112.68;73.05;;;;;;;;;;6266423;28;24424;-82
2024/02/19 04:08:55;;;;;;;119.07;74.10;;;;;;;;;;6264571;28;24416;-81
2024/02/19 04:11:56;;;;;;;116.38;72.32;;;;;;;;;;6266469;28;24519;-81
2024/02/19 04:14:59;;;;;;;113.53;72.97;;;;;;;;;;6266332;28;24508;-81
2024/02/19 04:18:01;;;;;;;115.75;72.00;;;;;;;;;;6268342;28;24446;-79
2024/02/19 04:21:02;;;;;;;112.90;71.38;;;;;;;;;;6268836;28;24833;-82
2024/02/19 04:24:04;;;;;;;117.32;73.35;;;;;;;;;;6268529;28;24446;-81
2024/02/19 04:27:05;;;;;;;113.45;71.47;;;;;;;;;;6264988;28;24418;-82
2024/02/19 04:30:09;;;;;;;117.05;72.07;;;;;;;;;;6267872;28;24431;-81
2024/02/19 04:33:10;;;;;;;116.43;72.75;;;;;;;;;;6265666;28;24419;-84
2024/02/19 04:36:12;;;;;;;117.10;74.45;;;;;;;;;;6266737;28;24420;-81
2024/02/19 04:39:13;;;;;;;116.10;72.37;;;;;;;;;;6263778;28;25424;-82
2024/02/19 04:42:15;;;;;;;111.70;71.25;;;;;;;;;;6266894;28;24458;-81
2024/02/19 04:45:18;;;;;;;115.93;70.70;;;;;;;;;;6267182;28;24431;-81
2024/02/19 04:48:19;;;;;;;115.63;72.47;;;;;;;;;;6265772;28;24430;-81
2024/02/19 04:51:21;;;;;;;110.45;68.95;;;;;;;;;;6264338;28;24826;-81
2024/02/19 04:54:22;;;;;;;115.38;72.85;;;;;;;;;;6265745;28;24840;-81
2024/02/19 04:57:24;;;;;;;115.57;72.80;;;;;;;;;;6265103;28;24803;-81
2024/02/19 05:00:27;;;;;;;114.30;72.33;;;;;;;;;;6264376;28;24431;-81
2024/02/19 05:03:28;;;;;;;114.05;71.63;;;;;;;;;;6263663;28;24514;-81
2024/02/19 05:06:30;;;;;;;117.18;72.85;;;;;;;;;;6266936;28;24516;-81
2024/02/19 05:09:31;;;;;;;111.72;71.00;;;;;;;;;;6264428;28;24446;-82
2024/02/19 05:12:33;;;;;;;110.75;68.00;;;;;;;;;;6263435;28;24420;-80
2024/02/19 05:15:36;;;;;;;116.70;72.15;;;;;;;;;;6265638;28;24658;-82
2024/02/19 05:18:37;;;;;;;114.53;72.23;;;;;;;;;;6266630;28;24415;-82
2024/02/19 05:21:42;;;;;;;117.95;74.50;;;;;;;;;;6264708;28;24423;-82
2024/02/19 05:24:46;;;;;;;125.60;77.95;;;;;;;;;;6264219;28;24430;-80
2024/02/19 05:27:48;;;;;;;126.40;76.90;;;;;;;;;;6265667;28;24427;-81
2024/02/19 05:30:51;;;;;;;124.35;77.32;;;;;;;;;;6268606;28;24526;-81
2024/02/19 05:33:52;;;;;;;127.80;78.25;;;;;;;;;;6264687;28;24481;-81
2024/02/19 05:36:53;;;;;;;130.23;77.28;;;;;;;;;;6265571;28;24432;-81
2024/02/19 05:39:55;;;;;;;121.43;75.30;;;;;;;;;;6265593;28;24424;-81
2024/02/19 05:42:56;;;;;;;118.97;72.83;;;;;;;;;;6265623;28;24436;-82
2024/02/19 05:45:59;;;;;;;122.27;74.87;;;;;;;;;;6266936;28;24807;-81
2024/02/19 05:49:01;;;;;;;117.25;74.50;;;;;;;;;;6264566;28;24422;-81
2024/02/19 05:52:03;;;;;;;110.97;68.30;;;;;;;;;;6265568;28;24427;-81
2024/02/19 05:55:09;;;;;;;111.45;70.00;;;;;;;;;;6264349;28;24427;-82
2024/02/19 05:58:10;;;;;;;116.20;71.57;;;;;;;;;;6263980;28;24916;-81
2024/02/19 06:01:13;;;;;;;113.28;69.70;;;;;;;;;;6267273;28;24841;-83
2024/02/19 06:04:15;;;;;;;113.50;69.30;;;;;;;;;;6267473;28;24463;-83
2024/02/19 06:07:16;;;;;;;116.10;71.22;;;;;;;;;;6269188;28;24459;-81
2024/02/19 06:10:17;;;;;;;112.90;68.80;;;;;;;;;;6273065;28;24432;-81
2024/02/19 06:13:19;;;;;;;119.10;73.97;;;;;;;;;;6269258;28;24415;-82
2024/02/19 06:16:22;;;;;;;115.03;72.28;;;;;;;;;;6271029;28;24407;-81
2024/02/19 06:19:24;;;;;;;112.25;70.20;;;;;;;;;;6267099;28;24416;-82
2024/02/19 06:22:25;;;;;;;113.45;70.28;;;;;;;;;;6269888;28;24502;-82
2024/02/19 06:25:27;;;;;;;123.35;75.57;;;;;;;;;;6268930;28;24466;-82
2024/02/19 06:28:28;;;;;;;126.13;76.83;;;;;;;;;;6267511;28;24574;-82
2024/02/19 06:31:31;;;;;;;126.63;77.85;;;;;;;;;;6270246;28;24408;-82
2024/02/19 06:34:34;;;;;;;124.17;77.13;;;;;;;;;;6270935;28;24599;-82
2024/02/19 06:37:35;;;;;;;125.50;78.43;;;;;;;;;;6269467;28;24818;-80
2024/02/19 06:40:37;;;;;;;122.65;74.68;;;;;;;;;;6269617;28;24414;-81
2024/02/19 06:43:38;;;;;;;116.75;73.18;;;;;;;;;;6271834;28;24478;-81
2024/02/19 06:46:41;;;;;;;119.93;74.40;;;;;;;;;;6269905;28;24412;-80
2024/02/19 06:49:43;;;;;;;124.80;76.57;;;;;;;;;;6267791;28;24418;-81
2024/02/19 06:52:45;;;;;;;120.72;73.65;;;;;;;;;;6266669;28;24817;-82
2024/02/19 06:55:47;;;;;;;120.78;77.60;;;;;;;;;;6268777;28;24650;-83
2024/02/19 06:58:48;;;;;;;123.35;76.85;;;;;;;;;;6268728;28;24434;-81
2024/02/19 07:01:51;;;;;;;122.57;75.47;;;;;;;;;;6268522;28;25266;-81
2024/02/19 07:04:52;;;;;;;122.32;76.80;;;;;;;;;;6265523;28;24434;-82
2024/02/19 07:07:54;;;;;;;128.97;78.33;;;;;;;;;;6266218;28;24415;-84
2024/02/19 07:10:55;;;;;;;131.93;80.70;;;;;;;;;;6268262;28;24419;-81
2024/02/19 07:13:57;;;;;;;127.60;80.20;;;;;;;;;;6270154;28;24490;-81
2024/02/19 07:17:00;;;;;;;125.68;77.68;;;;;;;;;;6266779;28;24423;-82
2024/02/19 07:20:01;;;;;;;129.70;81.95;;;;;;;;;;6268717;28;24828;-83
2024/02/19 07:23:03;;;;;;;129.93;82.03;;;;;;;;;;6267797;28;24543;-82
2024/02/19 07:26:04;;;;;;;133.23;81.72;;;;;;;;;;6267710;28;24419;-81
2024/02/19 07:29:06;;;;;;;123.10;78.33;;;;;;;;;;6266825;28;24522;-81
2024/02/19 07:32:09;;;;;;;119.93;76.10;;;;;;;;;;6270040;28;24418;-81
2024/02/19 07:35:10;;;;;;;117.82;76.25;;;;;;;;;;6267134;28;24426;-81
2024/02/19 07:38:12;;;;;;;120.90;78.30;;;;;;;;;;6267423;28;24443;-81
2024/02/19 07:41:16;;;;;;;117.78;74.93;;;;;;;;;;6265009;28;24836;-81
2024/02/19 07:44:18;;;;;;;116.40;76.27;;;;;;;;;;6267363;28;24500;-81
2024/02/19 07:47:21;;;;;;;119.55;75.00;;;;;;;;;;6267193;28;24476;-81
2024/02/19 07:50:22;;;;;;;112.40;70.57;;;;;;;;;;6265459;28;24616;-82
2024/02/19 07:53:24;;;;;;;110.53;70.35;;;;;;;;;;6267783;28;24426;-82
2024/02/19 07:56:25;;;;;;;104.97;69.43;;;;;;;;;;6265988;28;24423;-81
2024/02/19 07:59:27;;;;;;;106.07;69.28;;;;;;;;;;6270405;28;24427;-81
2024/02/19 08:02:29;;;;;;;110.13;70.40;;;;;;;;;;6266947;28;24435;-81
2024/02/19 08:05:31;;;;;;;109.20;69.15;;;;;;;;;;6266339;28;24424;-84
2024/02/19 08:08:32;;;;;;;104.07;67.43;;;;;;;;;;6266140;28;24419;-81
2024/02/19 08:11:34;;;;;;;101.07;66.30;;;;;;;;;;6266402;28;24491;-82
2024/02/19 08:14:35;;;;;;;112.50;71.82;;;;;;;;;;6266814;28;24411;-80
2024/02/19 08:17:38;;;;;;;117.20;75.30;;;;;;;;;;6267307;28;24462;-81
2024/02/19 08:20:40;;;;;;;115.43;75.47;;;;;;;;;;6264479;28;24418;-81
2024/02/19 08:23:41;;;;;;;110.35;73.38;;;;;;;;;;6262869;28;24481;-82
2024/02/19 08:26:43;;;;;;;109.93;73.95;;;;;;;;;;6264017;28;24966;-81
2024/02/19 08:29:44;;;;;;;106.18;71.72;;;;;;;;;;6265836;28;24806;-82
2024/02/19 08:32:47;;;;;;;107.28;72.82;;;;;;;;;;6266350;28;24655;-81
2024/02/19 08:35:50;;;;;;;108.30;73.45;;;;;;;;;;6264679;28;24427;-81
2024/02/19 08:38:52;;;;;;;96.28;65.07;;;;;;;;;;6265083;28;24466;-81
2024/02/19 08:41:55;;;;;;;95.13;64.57;;;;;;;;;;6263507;28;24636;-81
2024/02/19 08:44:56;;;;;;;91.07;62.72;;;;;;;;;;6264116;28;24454;-82
2024/02/19 08:47:59;;;;;;;90.22;61.55;;;;;;;;;;6264219;28;24619;-82
2024/02/19 08:51:01;;;;;;;87.63;60.47;;;;;;;;;;6265104;28;24651;-81
2024/02/19 08:54:02;;;;;;;83.43;58.37;;;;;;;;;;6266491;28;24759;-82
2024/02/19 08:57:04;;;;;;;81.20;58.08;;;;;;;;;;6266056;28;24419;-81
2024/02/19 09:00:07;;;;;;;74.50;54.55;;;;;;;;;;6265439;28;24426;-81
2024/02/19 09:03:10;;;;;;;79.85;57.30;;;;;;;;;;6265211;28;24487;-82
2024/02/19 09:06:11;;;;;;;79.00;56.08;;;;;;;;;;6268397;28;24467;-81
2024/02/19 09:09:13;;;;;;;76.93;55.35;;;;;;;;;;6266365;28;24608;-82
2024/02/19 09:12:14;;;;;;;74.68;53.28;;;;;;;;;;6267495;28;24408;-82
2024/02/19 09:15:16;;;;;;;77.33;55.40;;;;;;;;;;6266288;28;24672;-81
2024/02/19 09:18:19;;;;;;;75.93;53.97;;;;;;;;;;6265879;28;24631;-83
2024/02/19 09:21:20;;;;;;;72.30;52.20;;;;;;;;;;6264356;28;24946;-81
2024/02/19 09:24:21;;;;;;;64.70;47.92;;;;;;;;;;6265477;28;24427;-82
2024/02/19 09:27:23;;;;;;;60.75;47.25;;;;;;;;;;6269468;28;24814;-82
2024/02/19 09:30:25;;;;;;;65.32;50.63;;;;;;;;;;6262080;28;24505;-83
2024/02/19 09:33:28;;;;;;;66.43;49.53;;;;;;;;;;6264328;28;24427;-81
2024/02/19 09:36:29;;;;;;;63.22;48.45;;;;;;;;;;6270166;28;24811;-82
2024/02/19 09:39:31;;;;;;;61.80;46.90;;;;;;;;;;6269129;28;24435;-82
2024/02/19 09:42:32;;;;;;;63.08;46.33;;;;;;;;;;6267116;28;24522;-82
2024/02/19 09:45:36;;;;;;;59.25;46.83;;;;;;;;;;6271952;28;24432;-80
2024/02/19 09:48:39;;;;;;;64.53;50.33;;;;;;;;;;6267859;28;24502;-81
2024/02/19 09:51:45;;;;;;;58.33;47.00;;;;;;;;;;6269422;28;24431;-83
2024/02/19 09:54:47;;;;;;;57.40;44.53;;;;;;;;;;6270168;28;24427;-83
2024/02/19 09:57:49;;;;;;;54.90;42.92;;;;;;;;;;6272033;28;24638;-83
2024/02/19 10:00:50;;;;;;;63.27;48.57;;;;;;;;;;6270822;28;24823;-83
2024/02/19 10:03:53;;;;;;;68.28;52.55;;;;;;;;;;6267355;28;24420;-82
2024/02/19 10:07:00;;;;;;;69.80;52.40;;;;;;;;;;6271836;28;24415;-82
2024/02/19 10:10:04;;;;;;;68.57;50.67;;;;;;;;;;6273769;28;24428;-81
2024/02/19 10:13:06;;;;;;;70.82;53.22;;;;;;;;;;6271021;28;24432;-82
2024/02/19 10:16:08;;;;;;;62.72;45.97;;;;;;;;;;6270386;28;24431;-83
2024/02/19 10:19:12;;;;;;;65.38;47.90;;;;;;;;;;6268765;28;24423;-82
2024/02/19 10:22:16;;;;;;;62.90;46.75;;;;;;;;;;6271405;28;24418;-81
2024/02/19 10:25:18;;;;;;;61.63;45.67;;;;;;;;;;6271427;28;24831;-82
2024/02/19 10:28:22;;;;;;;59.33;44.60;;;;;;;;;;6266394;28;24435;-82
2024/02/19 10:31:23;;;;;;;51.67;40.10;;;;;;;;;;6267310;28;24698;-81
2024/02/19 10:34:26;;;;;;;53.70;40.40;;;;;;;;;;6268682;28;24701;-81
2024/02/19 10:37:27;;;;;;;56.87;43.73;;;;;;;;;;6269101;28;24549;-81
2024/02/19 10:40:29;;;;;;;57.10;44.22;;;;;;;;;;6268861;28;24428;-83
2024/02/19 10:43:31;;;;;;;53.13;41.78;;;;;;;;;;6271652;28;24787;-83
2024/02/19 10:46:32;;;;;;;69.10;50.40;;;;;;;;;;6266647;28;24603;-86
2024/02/19 10:49:35;;;;;;;71.60;52.83;;;;;;;;;;6266454;28;24411;-83
2024/02/19 10:52:39;;;;;;;69.28;50.88;;;;;;;;;;6267880;28;24403;-84
2024/02/19 10:55:42;;;;;;;60.30;46.03;;;;;;;;;;6268011;28;24411;-84
2024/02/19 10:58:53;;;;;;;70.57;51.72;;;;;;;;;;6268492;28;24410;-82
2024/02/19 11:01:54;;;;;;;76.53;54.08;;;;;;;;;;6268341;28;24486;-84
2024/02/19 11:04:58;;;;;;;75.72;55.65;;;;;;;;;;6267818;28;24458;-83
2024/02/19 11:08:00;;;;;;;72.60;53.30;;;;;;;;;;6267276;28;24423;-82
2024/02/19 11:11:03;;;;;;;56.27;44.23;;;;;;;;;;6267607;28;24503;-82
2024/02/19 11:14:05;;;;;;;49.30;39.28;;;;;;;;;;6266184;28;24466;-82
2024/02/19 11:17:09;;;;;;;52.17;40.53;;;;;;;;;;6267432;28;24427;-81
2024/02/19 11:20:12;;;;;;;58.67;45.08;;;;;;;;;;6268674;28;24652;-83
2024/02/19 11:23:15;;;;;;;52.03;41.40;;;;;;;;;;6264576;28;24423;-82
2024/02/19 11:26:17;;;;;;;53.67;43.13;;;;;;;;;;6265391;28;24544;-82
2024/02/19 11:29:19;;;;;;;50.00;39.10;;;;;;;;;;6267537;28;24446;-82
2024/02/19 11:32:20;;;;;;;50.88;40.00;;;;;;;;;;6265215;28;24431;-82
2024/02/19 11:35:23;;;;;;;49.90;38.78;;;;;;;;;;6276857;28;24432;-83
2024/02/19 11:38:25;;;;;;;47.25;38.10;;;;;;;;;;6266683;28;24609;-81
2024/02/19 11:41:27;;;;;;;56.05;44.63;;;;;;;;;;6263653;28;24427;-82
2024/02/19 11:44:29;;;;;;;54.67;43.07;;;;;;;;;;6266344;28;24582;-81
2024/02/19 11:47:31;;;;;;;54.83;42.38;;;;;;;;;;6263245;28;24416;-83
2024/02/19 11:50:34;;;;;;;52.75;41.97;;;;;;;;;;6264204;28;24434;-80
2024/02/19 11:53:35;;;;;;;55.30;44.90;;;;;;;;;;6266570;28;24643;-82
2024/02/19 11:56:43;;;;;;;55.30;42.53;;;;;;;;;;6259385;28;24459;-81
2024/02/19 11:59:45;;;;;;;50.58;39.90;;;;;;;;;;6265498;28;24430;-85
2024/02/19 12:02:48;;;;;;;51.35;40.78;;;;;;;;;;6263104;28;24466;-81
2024/02/19 12:05:50;;;;;;;53.60;42.33;;;;;;;;;;6268108;28;24507;-86
2024/02/19 12:08:52;;;;;;;68.65;52.95;;;;;;;;;;6266862;28;24420;-84
2024/02/19 12:11:54;;;;;;;66.95;52.47;;;;;;;;;;6266423;28;24454;-86
2024/02/19 12:14:55;;;;;;;68.82;53.03;;;;;;;;;;6265701;28;24523;-83
2024/02/19 12:17:57;;;;;;;84.50;67.37;;;;;;;;;;6267318;28;24426;-85
2024/02/19 12:21:00;;;;;;;90.38;69.45;;;;;;;;;;6266200;28;24829;-84
2024/02/19 12:24:01;;;;;;;80.40;61.55;;;;;;;;;;6267042;28;24806;-83
2024/02/19 12:27:03;;;;;;;78.68;61.67;;;;;;;;;;6265743;28;24461;-83
2024/02/19 12:30:05;;;;;;;74.13;58.28;;;;;;;;;;6268831;28;24803;-83
2024/02/19 12:33:08;;;;;;;70.72;56.83;;;;;;;;;;6270170;28;24423;-84
2024/02/19 12:36:12;;;;;;;70.82;54.50;;;;;;;;;;6264950;28;24495;-85
2024/02/19 12:39:13;;;;;;;69.05;53.42;;;;;;;;;;6267376;28;24435;-83
2024/02/19 12:42:15;;;;;;;70.68;55.10;;;;;;;;;;6265754;28;24427;-82
2024/02/19 12:45:18;;;;;;;68.57;53.53;;;;;;;;;;6269602;28;24427;-83
2024/02/19 12:48:19;;;;;;;62.08;47.67;;;;;;;;;;6264464;28;24597;-84
2024/02/19 12:51:30;;;;;;;59.38;45.90;;;;;;;;;;6265688;28;24427;-83
2024/02/19 12:54:32;;;;;;;58.57;45.77;;;;;;;;;;6266115;28;24424;-84
2024/02/19 12:57:33;;;;;;;73.90;57.25;;;;;;;;;;6267580;28;24427;-83
2024/02/19 13:00:35;;;;;;;69.45;54.58;;;;;;;;;;6265704;28;24511;-84
2024/02/19 13:03:36;;;;;;;65.40;52.67;;;;;;;;;;6266821;28;24517;-83
2024/02/19 13:06:40;;;;;;;65.32;51.05;;;;;;;;;;6266636;28;24643;-85
2024/02/19 13:09:41;;;;;;;55.60;44.90;;;;;;;;;;6267222;28;24428;-83
2024/02/19 13:12:44;;;;;;;71.55;55.33;;;;;;;;;;6265335;28;24431;-82
2024/02/19 13:15:45;;;;;;;63.10;50.15;;;;;;;;;;6262666;28;24507;-84
2024/02/19 13:18:49;;;;;;;59.40;46.23;;;;;;;;;;6268628;28;24422;-86
2024/02/19 13:21:52;;;;;;;63.20;49.80;;;;;;;;;;6265850;28;24542;-84
2024/02/19 13:24:54;;;;;;;153.63;110.57;;;;;;;;;;6267789;28;24848;-84
2024/02/19 13:27:55;;;;;;;95.05;70.88;;;;;;;;;;6265923;28;24792;-85
2024/02/19 13:30:56;;;;;;;102.95;75.47;;;;;;;;;;6264464;28;25212;-83
2024/02/19 13:33:58;;;;;;;105.07;77.75;;;;;;;;;;6267648;28;24848;-82
2024/02/19 13:37:01;;;;;;;88.13;63.70;;;;;;;;;;6265684;28;24416;-84
2024/02/19 13:40:05;;;;;;;84.05;64.20;;;;;;;;;;6264290;28;24423;-84
2024/02/19 13:43:06;;;;;;;74.38;56.40;;;;;;;;;;6264527;28;24502;-83
2024/02/19 13:46:08;;;;;;;64.53;51.78;;;;;;;;;;6264976;28;24442;-83
2024/02/19 13:49:09;;;;;;;65.78;50.88;;;;;;;;;;6263413;28;24458;-86
2024/02/19 13:52:12;;;;;;;56.47;45.92;;;;;;;;;;6264066;28;24435;-85
2024/02/19 13:55:15;;;;;;;56.78;43.70;;;;;;;;;;6265094;28;25067;-84
2024/02/19 13:58:17;;;;;;;60.08;46.88;;;;;;;;;;6262252;28;24445;-86
2024/02/19 14:01:18;;;;;;;60.20;48.20;;;;;;;;;;6262229;28;24630;-84
2024/02/19 14:04:20;;;;;;;60.47;47.38;;;;;;;;;;6263606;28;24431;-84
2024/02/19 14:07:24;;;;;;;58.20;46.33;;;;;;;;;;6264370;28;24575;-85
2024/02/19 14:10:25;;;;;;;61.08;49.67;;;;;;;;;;6265375;28;24558;-84
2024/02/19 14:13:27;;;;;;;55.08;43.88;;;;;;;;;;6264227;28;24432;-84
2024/02/19 14:16:28;;;;;;;54.60;43.95;;;;;;;;;;6262528;28;24431;-85
2024/02/19 14:19:30;;;;;;;51.05;40.72;;;;;;;;;;6266155;28;24434;-85
2024/02/19 14:22:33;;;;;;;46.30;37.73;;;;;;;;;;6268211;28;24771;-85
2024/02/19 14:25:35;;;;;;;50.88;40.78;;;;;;;;;;6268724;28;24435;-86
2024/02/19 14:28:37;;;;;;;41.83;34.25;;;;;;;;;;6268790;28;24462;-86
2024/02/19 14:31:38;;;;;;;49.00;40.20;;;;;;;;;;6270458;28;24470;-85
2024/02/19 14:34:40;;;;;;;50.67;38.97;;;;;;;;;;6267688;28;24418;-85
2024/02/19 14:37:43;;;;;;;52.05;42.45;;;;;;;;;;6269367;28;24407;-84
2024/02/19 14:40:45;;;;;;;55.55;46.40;;;;;;;;;;6269131;28;24655;-84
2024/02/19 14:43:46;;;;;;;49.95;41.20;;;;;;;;;;6268513;28;24407;-85
2024/02/19 14:46:48;;;;;;;45.28;37.03;;;;;;;;;;6268019;28;24404;-84
2024/02/19 14:49:49;;;;;;;39.00;32.22;;;;;;;;;;6268299;28;24414;-85
2024/02/19 14:52:52;;;;;;;37.25;31.35;;;;;;;;;;6265243;28;24442;-87
2024/02/19 14:55:54;;;;;;;43.60;35.40;;;;;;;;;;6267665;28;24418;-86
2024/02/19 14:58:56;;;;;;;45.95;37.53;;;;;;;;;;6270641;28;24552;-84
2024/02/19 15:01:58;;;;;;;50.47;41.70;;;;;;;;;;6267654;28;24814;-85
2024/02/19 15:05:00;;;;;;;54.88;46.55;;;;;;;;;;6339779;22;24414;-84
2024/02/19 15:08:03;;;;;;;56.63;46.67;;;;;;;;;;6314916;28;24429;-85
2024/02/19 15:11:04;;;;;;;57.20;48.03;;;;;;;;;;6318202;28;24871;-84
2024/02/19 15:14:06;;;;;;;68.40;56.25;;;;;;;;;;6317739;28;24414;-83
2024/02/19 15:17:08;;;;;;;65.32;52.92;;;;;;;;;;6320014;28;24501;-83
2024/02/19 15:20:11;;;;;;;82.15;65.38;;;;;;;;;;6320844;28;24429;-85
2024/02/19 15:23:14;;;;;;;100.68;76.35;;;;;;;;;;6316520;28;24461;-86
2024/02/19 15:26:16;;;;;;;108.72;81.68;;;;;;;;;;6318934;28;24438;-87
2024/02/19 15:29:19;;;;;;;96.43;70.38;;;;;;;;;;6316228;28;24444;-86
2024/02/19 15:32:22;;;;;;;106.33;75.87;;;;;;;;;;6316717;28;24520;-84
2024/02/19 15:35:25;;;;;;;101.88;74.63;;;;;;;;;;6317917;28;24414;-84
2024/02/19 15:38:27;;;;;;;90.75;68.78;;;;;;;;;;6319477;28;24441;-84
2024/02/19 15:41:30;;;;;;;88.90;65.88;;;;;;;;;;6319366;28;24415;-82
2024/02/19 15:44:32;;;;;;;80.35;62.03;;;;;;;;;;6317064;28;24882;-83
2024/02/19 15:47:33;;;;;;;81.35;61.35;;;;;;;;;;6317141;28;24422;-82
2024/02/19 15:50:35;;;;;;;87.82;63.33;;;;;;;;;;6315587;28;24487;-82
2024/02/19 15:53:38;;;;;;;89.18;66.22;;;;;;;;;;6313889;28;24500;-83
2024/02/19 15:56:39;;;;;;;88.47;64.20;;;;;;;;;;6314619;28;24516;-81
2024/02/19 15:59:41;;;;;;;81.50;60.38;;;;;;;;;;6313718;28;24411;-81
2024/02/19 16:02:42;;;;;;;84.55;59.97;;;;;;;;;;6315667;28;24426;-82
2024/02/19 16:05:45;;;;;;;80.45;58.33;;;;;;;;;;6310939;28;24422;-82
2024/02/19 16:08:47;;;;;;;81.20;58.77;;;;;;;;;;6313630;28;24670;-82
2024/02/19 16:11:50;;;;;;;86.77;62.03;;;;;;;;;;6317082;28;24419;-82
2024/02/19 16:14:51;;;;;;;93.55;66.10;;;;;;;;;;6314086;28;24419;-81
2024/02/19 16:17:53;;;;;;;86.30;61.90;;;;;;;;;;6316392;28;24423;-81
2024/02/19 16:20:54;;;;;;;88.00;62.50;;;;;;;;;;6313475;28;24497;-82
2024/02/19 16:23:57;;;;;;;85.57;62.13;;;;;;;;;;6312041;28;24418;-81
2024/02/19 16:26:59;;;;;;;91.72;64.85;;;;;;;;;;6315113;28;24820;-83
2024/02/19 16:30:02;;;;;;;89.57;65.50;;;;;;;;;;6318565;28;24446;-82
2024/02/19 16:33:04;;;;;;;85.70;61.97;;;;;;;;;;6314255;28;25329;-83
2024/02/19 16:36:06;;;;;;;89.68;62.65;;;;;;;;;;6313809;28;24417;-79
2024/02/19 16:39:09;;;;;;;90.57;64.00;;;;;;;;;;6313595;28;24436;-82
2024/02/19 16:42:10;;;;;;;93.78;66.30;;;;;;;;;;6316320;28;24494;-81
2024/02/19 16:45:12;;;;;;;92.70;65.50;;;;;;;;;;6316861;28;24427;-83
2024/02/19 16:48:16;;;;;;;94.18;65.93;;;;;;;;;;6314202;28;24415;-83
2024/02/19 16:51:18;;;;;;;95.53;65.53;;;;;;;;;;6316366;28;24418;-81
2024/02/19 16:54:20;;;;;;;93.67;65.23;;;;;;;;;;6315938;28;24502;-81
2024/02/19 16:57:22;;;;;;;94.97;67.30;;;;;;;;;;6312605;28;25191;-81
2024/02/19 17:00:24;;;;;;;97.03;66.70;;;;;;;;;;6317085;28;24599;-81
2024/02/19 17:03:25;;;;;;;94.78;67.72;;;;;;;;;;6315423;28;24631;-81
2024/02/19 17:06:27;;;;;;;94.65;66.60;;;;;;;;;;6314159;28;24607;-83
2024/02/19 17:09:29;;;;;;;98.78;69.47;;;;;;;;;;6315624;28;24419;-82
2024/02/19 17:12:31;;;;;;;94.80;67.18;;;;;;;;;;6312819;28;24837;-81
2024/02/19 17:15:32;;;;;;;100.85;68.95;;;;;;;;;;6316841;28;24427;-81
2024/02/19 17:18:34;;;;;;;98.77;68.83;;;;;;;;;;6314070;28;24414;-82
2024/02/19 17:21:37;;;;;;;99.15;70.20;;;;;;;;;;6312952;28;24711;-82
2024/02/19 17:24:41;;;;;;;98.30;69.60;;;;;;;;;;6312020;28;24418;-81
2024/02/19 17:27:44;;;;;;;102.00;69.00;;;;;;;;;;6315556;28;24453;-81
2024/02/19 17:30:46;;;;;;;107.15;72.45;;;;;;;;;;6314216;28;24438;-81